Time;durP1;ratioP1;P1;durP2;ratioP2;P2;SDS_P1;SDS_P2;PMS_P1;PMS_P2;Temp;Humidity;BMP_temperature;BMP_pressure;BME280_temperature;BME280_humidity;BME280_pressure;Samples;Min_cycle;Max_cycle;Signal;HPM_P1;HPM_P2
2023/03/30 13:00:52;;;;;;;7.93;2.72;;;;;;;19.62;46.70;100482.38;6299120;22;20035;-93
2023/03/30 14:08:54;;;;;;;13.55;4.05;;;;;;;13.45;81.68;100535.81;6283250;22;20020;-92
2023/03/30 14:11:31;;;;;;;13.18;3.70;;;;;;;12.81;86.60;100541.88;6243233;22;20034;-90
2023/03/30 14:13:57;;;;;;;13.35;3.58;;;;;;;12.56;93.82;100563.97;6272187;22;20014;-91
2023/03/30 14:16:33;;;;;;;17.75;4.82;;;;;;;12.16;97.83;100531.75;6273360;22;20008;-89
2023/03/30 14:19:20;;;;;;;14.52;4.20;;;;;;;12.92;100.00;100593.66;6249621;22;20003;-91
2023/03/30 14:22:26;;;;;;;15.07;3.90;;;;;;;13.12;92.85;100514.00;6279473;22;20000;-91
2023/03/30 14:28:28;;;;;;;13.77;3.33;;;;;;;13.43;93.21;100529.75;6179023;23;20181;-92
2023/03/30 14:31:16;;;;;;;13.15;3.60;;;;;;;13.54;93.11;100525.47;6190209;23;20072;-93
2023/03/30 14:37:36;;;;;;;10.50;3.35;;;;;;;13.88;89.06;100556.97;6185733;23;20029;-93
2023/03/30 14:40:52;;;;;;;12.85;3.25;;;;;;;13.81;88.66;100502.19;6166915;23;20056;-93
2023/03/30 14:43:39;;;;;;;10.77;2.75;;;;;;;13.51;87.65;100494.47;6183310;23;20009;-95
2023/03/30 14:46:15;;;;;;;11.27;3.03;;;;;;;13.39;89.19;100496.16;6192242;23;20016;-92
2023/03/30 14:52:11;;;;;;;;;;;;;;;;;;;;;
2023/03/30 14:55:11;;;;;;;10.20;2.75;;;;;;;13.42;88.63;100519.16;6259732;23;20005;-95
2023/03/30 14:58:30;;;;;;;9.10;2.45;;;;;;;13.14;87.33;100486.22;6250454;23;20011;-96
2023/03/30 15:01:35;;;;;;;;;;;;;;;;;;;;;
2023/03/30 15:04:42;;;;;;;8.43;2.58;;;;;;;12.97;88.99;100486.50;6226250;23;20024;-94
2023/03/30 15:08:01;;;;;;;10.50;2.95;;;;;;;12.96;89.50;100496.34;6262097;22;20008;-93
2023/03/30 15:11:03;;;;;;;9.70;2.60;;;;;;;13.25;87.57;100493.56;6245088;22;20012;-96
2023/03/30 15:24:54;;;;;;;9.75;3.03;;;;;;;14.88;80.24;100499.84;6048687;23;20015;-96
2023/03/30 16:58:16;;;;;;;6.85;2.42;;;;;;;13.31;83.53;100484.28;6271236;22;20015;-91
2023/03/30 17:01:02;;;;;;;;;;;;;;;;;;;;;
2023/03/30 17:03:28;;;;;;;8.15;2.30;;;;;;;12.95;86.44;100469.72;6245967;23;20078;-93
2023/03/30 17:05:54;;;;;;;8.30;2.30;;;;;;;12.99;87.51;100497.06;6243570;22;20330;-91
2023/03/30 17:11:12;;;;;;;9.20;2.75;;;;;;;13.09;88.21;100517.75;6245058;23;20008;-92
2023/03/30 21:31:56;;;;;;;13.82;5.03;;;;;;;9.75;100.00;100437.47;6265879;23;20074;-94
2023/03/30 21:39:01;;;;;;;;;;;;;;;;;;;;;
2023/03/30 21:41:22;;;;;;;10.88;4.82;;;;;;;9.37;100.00;100389.91;6234261;22;20011;-94
2023/03/30 21:43:55;;;;;;;9.65;4.05;;;;;;;9.44;100.00;100397.44;6295420;22;20003;-96
2023/03/30 21:46:22;;;;;;;9.45;4.55;;;;;;;9.31;100.00;100372.47;6258041;22;20007;-95
2023/03/30 21:48:52;;;;;;;12.75;4.72;;;;;;;9.41;100.00;100381.69;6290826;22;20007;-95
2023/03/30 21:54:16;;;;;;;8.80;3.83;;;;;;;9.20;100.00;100350.97;6255923;22;20016;-96
2023/03/30 21:56:44;;;;;;;11.18;4.30;;;;;;;9.19;100.00;100359.84;6261895;22;20023;-96
2023/03/30 21:59:17;;;;;;;9.95;3.75;;;;;;;9.22;100.00;100371.16;6266812;22;20009;-94
2023/03/30 22:01:48;;;;;;;8.43;3.67;;;;;;;9.22;100.00;100370.31;6268273;23;20064;-95
2023/03/30 22:04:13;;;;;;;9.55;4.10;;;;;;;9.17;100.00;100369.69;6265804;23;20015;-96
2023/03/30 22:09:18;;;;;;;10.68;3.55;;;;;;;9.33;100.00;100401.63;6290389;22;20022;-95
2023/03/30 22:11:51;;;;;;;10.65;3.60;;;;;;;9.12;100.00;100358.47;6268483;22;20046;-95
2023/03/30 22:14:36;;;;;;;11.48;3.75;;;;;;;9.12;100.00;100354.03;6298118;22;20014;-95
2023/03/30 22:17:06;;;;;;;9.82;3.88;;;;;;;9.33;100.00;100386.53;6271346;22;20007;-96
2023/03/30 22:19:33;;;;;;;10.98;3.78;;;;;;;9.09;100.00;100348.00;6273869;22;20076;-94
2023/03/30 22:22:12;;;;;;;11.25;3.72;;;;;;;9.20;100.00;100370.41;6300374;22;20003;-96
2023/03/30 22:24:41;;;;;;;10.57;3.58;;;;;;;9.22;100.00;100365.00;6266567;22;20003;-96
2023/03/30 22:27:07;;;;;;;10.95;4.15;;;;;;;9.19;100.00;100358.03;6293879;22;20056;-96
2023/03/30 22:29:39;;;;;;;9.40;4.45;;;;;;;8.95;100.00;100331.00;6295693;22;20019;-96
2023/03/30 22:32:19;;;;;;;8.80;4.03;;;;;;;9.07;100.00;100348.09;6297561;22;20162;-95
2023/03/30 22:34:55;;;;;;;11.50;4.18;;;;;;;9.07;100.00;100344.56;6278034;22;20014;-96
2023/03/30 22:37:31;;;;;;;8.05;3.47;;;;;;;9.14;100.00;100359.22;6295333;22;20029;-93
2023/03/30 22:42:35;;;;;;;10.57;4.05;;;;;;;9.10;100.00;100347.91;6266595;22;20024;-94
2023/03/30 22:45:12;;;;;;;7.85;3.58;;;;;;;8.93;100.00;100305.47;6284453;22;20000;-96
2023/03/30 22:48:04;;;;;;;9.73;4.00;;;;;;;8.87;100.00;100303.16;6252828;22;20005;-96
2023/03/30 22:51:02;;;;;;;7.35;3.90;;;;;;;8.96;100.00;100306.19;6266830;22;20004;-95
2023/03/30 22:53:45;;;;;;;9.63;3.75;;;;;;;9.08;100.00;100312.63;6234508;23;20057;-95
2023/03/30 22:56:18;;;;;;;9.32;3.90;;;;;;;8.99;100.00;100286.59;6236088;23;20019;-95
2023/03/30 22:59:02;;;;;;;10.52;4.18;;;;;;;9.27;100.00;100327.56;6235076;23;20028;-95
2023/03/30 23:01:45;;;;;;;8.48;4.82;;;;;;;9.08;100.00;100271.97;6236523;23;20008;-95
2023/03/30 23:04:23;;;;;;;9.40;4.70;;;;;;;9.39;100.00;100313.63;6279525;22;20031;-96
2023/03/30 23:07:35;;;;;;;;;;;;;;;;;;;;;
2023/03/30 23:10:24;;;;;;;9.63;4.45;;;;;;;9.47;100.00;100309.63;6271416;22;19996;-95
2023/03/30 23:12:58;;;;;;;8.98;3.75;;;;;;;9.34;100.00;100275.84;6277159;22;20006;-95
2023/03/30 23:15:36;;;;;;;11.23;4.00;;;;;;;9.55;100.00;100289.75;6300315;22;20030;-96
2023/03/30 23:26:15;;;;;;;7.00;3.13;;;;;;;9.59;100.00;100252.28;6282866;22;20007;-96
2023/03/30 23:28:52;;;;;;;8.35;3.22;;;;;;;9.36;100.00;100212.88;6276161;22;20447;-96
2023/03/30 23:31:25;;;;;;;8.63;3.50;;;;;;;9.38;100.00;100227.78;6301718;22;20007;-94
2023/03/30 23:34:07;;;;;;;6.07;3.10;;;;;;;9.36;100.00;100213.72;6302587;22;19995;-96
2023/03/30 23:36:42;;;;;;;6.70;3.30;;;;;;;9.22;100.00;100206.53;6299395;22;20010;-96
2023/03/30 23:39:30;;;;;;;8.05;2.83;;;;;;;9.16;100.00;100208.69;6304607;22;19988;-96
2023/03/30 23:58:27;;;;;;;8.55;3.40;;;;;;;9.17;100.00;100173.22;6265091;22;20013;-94
